Obetz, Ohio
Current Conditions -  °F | °C
As of 9:35 PM on Saturday 22 Nov 2014 (Local Time) from KLCK Reporting Station
Broken Clouds Broken Clouds  
Wind Chill: 41°   Ceiling: 11000
Heat Index: 46°   Visibility: 10mi
Dew Point: 33°   Wind: 10mph
Humidity: 62%   Direction: 180°S
Pressure: 30.07"   Gusts: NA
Location:  39.8938°N, 82.9624°W
Report Text: KLCK 230235Z AUTO 18009KT 10SM BKN110 08/01 A3007 RMK AO2 T00760008
Loading
Personal Weather Stations






























Interactive Weather Map New forecast layout! Learn more

10-Day Weather Forecast

Advertisements
Track Severe Weather on mobile